createdAt,value
2018-04-10T00:01:11.744Z,5.57
2018-04-10T00:03:39.231Z,4.93
2018-04-10T00:06:07.508Z,6.10
2018-04-10T00:08:35.760Z,4.80
2018-04-10T00:11:03.273Z,5.50
2018-04-10T00:13:30.765Z,5.10
2018-04-10T00:15:58.271Z,4.83
2018-04-10T00:18:25.797Z,4.77
2018-04-10T00:20:53.284Z,4.87
2018-04-10T00:23:21.540Z,4.40
2018-04-10T00:25:49.811Z,4.47
2018-04-10T00:28:17.299Z,4.83
2018-04-10T00:30:44.808Z,4.80
2018-04-10T00:33:12.299Z,5.10
2018-04-10T00:35:40.552Z,4.80
2018-04-10T00:38:08.063Z,4.40
2018-04-10T00:40:35.557Z,4.73
2018-04-10T00:43:03.060Z,5.00
2018-04-10T00:45:30.548Z,5.10
2018-04-10T00:47:58.059Z,4.97
2018-04-10T00:50:26.308Z,4.60
2018-04-10T00:52:53.807Z,4.60
2018-04-10T00:55:21.297Z,4.70
2018-04-10T00:57:48.829Z,5.33
2018-04-10T01:00:16.312Z,4.40
2018-04-10T02:43:06.618Z,5.00
2018-04-10T02:45:34.876Z,5.80
2018-04-10T02:48:03.151Z,5.20
2018-04-10T02:50:30.640Z,5.70
2018-04-10T02:52:58.201Z,5.10
2018-04-10T02:55:25.691Z,3.77
2018-04-10T02:57:53.205Z,4.70
2018-04-10T03:00:20.696Z,5.60
2018-04-10T03:02:48.204Z,5.80
2018-04-10T03:05:15.692Z,4.70
2018-04-10T03:07:43.199Z,4.60
2018-04-10T03:10:10.687Z,5.10
2018-04-10T03:12:38.960Z,5.83
2018-04-10T03:15:07.216Z,4.90
2018-04-10T03:17:34.720Z,5.97
2018-04-10T03:20:02.212Z,6.07
2018-04-10T03:22:29.715Z,5.90
2018-04-10T03:24:57.976Z,5.50
2018-04-10T03:27:26.271Z,5.20
2018-04-10T03:29:54.528Z,5.77
2018-04-10T03:32:22.035Z,6.23
2018-04-10T03:34:49.533Z,6.17
2018-04-10T03:37:17.024Z,6.37
2018-04-10T03:39:45.287Z,5.70
2018-04-10T03:42:13.543Z,5.83
2018-04-10T03:44:41.072Z,5.73
2018-04-10T03:47:08.565Z,5.67
2018-04-10T03:49:36.872Z,6.13
2018-04-10T03:52:04.431Z,5.63
2018-04-10T03:54:31.937Z,5.87
2018-04-10T03:56:59.423Z,5.43
2018-04-10T03:59:26.934Z,5.50
2018-04-10T04:01:54.428Z,6.40
2018-04-10T04:04:21.940Z,5.80
2018-04-10T04:06:49.437Z,6.07
2018-04-10T04:09:16.944Z,5.83
2018-04-10T04:11:44.438Z,4.80
2018-04-10T04:14:11.949Z,5.87
2018-04-10T04:16:51.432Z,5.70
2018-04-10T04:19:30.768Z,5.60
2018-04-10T04:22:10.137Z,5.20
2018-04-10T04:24:39.246Z,5.47
2018-04-10T04:27:07.504Z,5.50
2018-04-10T04:29:35.013Z,5.70
2018-04-10T04:32:02.508Z,6.20
2018-04-10T04:34:30.017Z,6.13
2018-04-10T04:36:57.508Z,5.57
2018-04-10T04:39:25.021Z,6.20
2018-04-10T04:41:52.504Z,6.10
2018-04-10T04:44:20.013Z,5.03
2018-04-10T04:46:47.504Z,5.67
2018-04-10T04:49:15.017Z,6.13
2018-04-10T04:51:42.504Z,5.50
2018-04-10T04:54:10.772Z,5.20
2018-04-10T04:56:39.033Z,5.70
2018-04-10T04:59:06.540Z,5.30
2018-04-10T05:01:34.027Z,6.23
2018-04-10T05:04:01.537Z,5.23
2018-04-10T05:06:29.029Z,5.83
2018-04-10T05:08:56.540Z,6.23
2018-04-10T05:11:24.800Z,6.70
2018-04-10T05:13:52.312Z,6.77
2018-04-10T05:16:19.800Z,6.43
2018-04-10T05:18:47.304Z,5.70
2018-04-10T05:21:14.865Z,5.67
2018-04-10T05:23:42.416Z,5.70
2018-04-10T05:26:09.976Z,5.53
2018-04-10T05:28:37.536Z,6.10
2018-04-10T05:31:05.028Z,5.80
2018-04-10T05:33:32.536Z,5.77
2018-04-10T05:36:00.801Z,6.30
2018-04-10T05:38:28.307Z,6.30
2018-04-10T05:40:55.798Z,6.43
2018-04-10T05:43:23.299Z,5.40
2018-04-10T05:45:50.860Z,5.50
2018-04-10T05:48:18.357Z,6.70
2018-04-10T05:50:45.863Z,6.70
2018-04-10T05:53:14.120Z,5.60
2018-04-10T05:55:42.392Z,6.47
2018-04-10T05:58:11.388Z,6.33
2018-04-10T06:00:38.977Z,6.03
2018-04-10T06:03:06.464Z,5.87
2018-04-10T06:05:33.972Z,6.30
2018-04-10T06:08:02.233Z,5.60
2018-04-10T06:10:29.743Z,5.60
2018-04-10T06:12:57.233Z,5.93
2018-04-10T06:15:24.741Z,6.32
2018-04-10T06:17:52.233Z,5.50
2018-04-10T06:20:19.746Z,5.27
2018-04-10T06:22:48.016Z,6.60
2018-04-10T06:25:16.296Z,6.10
2018-04-10T06:27:44.562Z,6.23
2018-04-10T06:30:12.081Z,6.37
2018-04-10T06:32:39.577Z,7.40
2018-04-10T06:35:07.092Z,6.63
2018-04-10T06:37:34.583Z,7.80
2018-04-10T06:40:02.105Z,7.77
2018-04-10T06:42:29.599Z,11.67
2018-04-10T06:44:57.120Z,10.10
2018-04-10T06:47:24.625Z,10.47
2018-04-10T06:49:52.135Z,11.63
2018-04-10T06:52:19.637Z,15.13
2018-04-10T06:54:47.160Z,14.93
2018-04-10T06:57:14.665Z,15.30
2018-04-10T06:59:42.952Z,13.90
2018-04-10T07:02:11.224Z,16.03
2018-04-10T07:04:39.509Z,16.30
2018-04-10T07:07:07.016Z,16.20
2018-04-10T07:09:34.536Z,16.57
2018-04-10T07:12:02.045Z,7.47
2018-04-10T07:14:29.551Z,7.80
2018-04-10T07:16:57.056Z,10.20
2018-04-10T07:19:24.578Z,9.50
2018-04-10T07:21:52.075Z,11.50
2018-04-10T07:24:19.589Z,11.10
2018-04-10T07:26:47.092Z,10.27
2018-04-10T07:29:14.611Z,10.50
2018-04-10T07:31:42.105Z,9.53
2018-04-10T07:34:09.620Z,12.07
2018-04-10T07:36:37.116Z,15.40
2018-04-10T07:39:07.505Z,7.70
2018-04-10T07:41:35.012Z,17.60
2018-04-10T07:44:02.528Z,18.00
2018-04-10T07:46:30.025Z,19.30
2018-04-10T07:48:57.557Z,19.07
2018-04-10T07:51:25.104Z,17.23
2018-04-10T07:53:52.596Z,18.60
2018-04-10T07:56:20.109Z,20.83
2018-04-10T07:58:47.609Z,19.73
2018-04-10T08:01:15.129Z,18.50
2018-04-10T08:03:42.629Z,18.20
2018-04-10T08:06:10.144Z,19.60
2018-04-10T08:08:37.645Z,19.73
2018-04-10T08:11:05.164Z,20.73
2018-04-10T08:13:32.660Z,20.43
2018-04-10T08:16:00.177Z,17.73
2018-04-10T08:18:27.681Z,19.80
2018-04-10T08:20:55.197Z,18.40
2018-04-10T08:23:22.692Z,18.87
2018-04-10T08:25:50.208Z,18.80
2018-04-10T08:28:17.712Z,18.60
2018-04-10T08:30:45.232Z,18.47
2018-04-10T08:33:12.728Z,19.10
2018-04-10T08:35:40.240Z,16.63
2018-04-10T08:38:07.744Z,17.97
2018-04-10T08:40:35.256Z,17.50
2018-04-10T08:43:02.756Z,17.50
2018-04-10T08:45:30.283Z,16.97
2018-04-10T08:47:57.784Z,16.40
2018-04-10T08:50:25.312Z,17.37
2018-04-10T08:52:52.820Z,16.43
2018-04-10T08:55:21.100Z,17.13
2018-04-10T08:57:48.608Z,16.20
2018-04-10T09:00:16.120Z,16.30
2018-04-10T09:02:44.205Z,15.97
2018-04-10T09:05:11.733Z,15.50
2018-04-10T09:07:40.001Z,13.77
2018-04-10T09:10:07.521Z,14.53
2018-04-10T09:12:35.025Z,15.23
2018-04-10T09:15:03.313Z,14.77
2018-04-10T09:17:31.576Z,13.83
2018-04-10T09:19:59.856Z,12.50
2018-04-10T09:22:28.128Z,13.57
2018-04-10T09:24:56.413Z,14.13
2018-04-10T09:27:24.672Z,13.63
2018-04-10T09:29:52.192Z,11.97
2018-04-10T09:32:19.688Z,11.60
2018-04-10T09:34:47.205Z,11.80
2018-04-10T09:37:14.711Z,12.30
2018-04-10T09:39:42.992Z,11.70
2018-04-10T09:42:11.265Z,12.10
2018-04-10T09:44:39.552Z,11.53
2018-04-10T09:47:07.820Z,13.20
2018-04-10T09:49:36.116Z,10.67
2018-04-10T09:52:03.624Z,11.57
2018-04-10T09:54:31.128Z,10.63
2018-04-10T09:56:58.652Z,11.17
2018-04-10T09:59:26.157Z,10.53
2018-04-10T10:01:53.684Z,10.57
2018-04-10T10:04:21.956Z,10.50
2018-04-10T10:06:50.240Z,9.97
2018-04-10T10:09:18.496Z,7.17
2018-04-10T10:11:46.008Z,8.40
2018-04-10T10:14:13.509Z,7.50
2018-04-10T10:16:41.021Z,7.03
2018-04-10T10:19:08.520Z,7.40
2018-04-10T10:21:36.033Z,6.87
2018-04-10T10:24:03.945Z,6.10
2018-04-10T10:26:31.461Z,6.83
2018-04-10T10:28:58.955Z,5.00
2018-04-10T10:31:26.785Z,6.20
2018-04-10T10:33:54.281Z,5.23
2018-04-10T10:36:21.796Z,5.37
2018-04-10T10:38:49.301Z,4.40
2018-04-10T10:41:16.808Z,4.70
2018-04-10T10:43:44.300Z,4.77
2018-04-10T10:46:11.808Z,5.43
2018-04-10T10:48:40.076Z,4.97
2018-04-10T10:51:08.355Z,4.43
2018-04-10T10:53:36.617Z,5.63
2018-04-10T10:56:04.140Z,4.67
2018-04-10T10:58:31.638Z,4.37
2018-04-10T11:00:59.965Z,4.13
2018-04-10T11:03:27.445Z,3.57
2018-04-10T11:05:54.957Z,4.40
2018-04-10T11:08:22.448Z,3.50
2018-04-10T11:10:49.961Z,3.67
2018-04-10T11:13:18.228Z,3.87
2018-04-10T11:15:46.508Z,3.70
2018-04-10T11:18:14.772Z,3.60
2018-04-10T11:20:42.280Z,3.80
2018-04-10T11:23:09.772Z,3.57
2018-04-10T11:25:37.281Z,4.50
2018-04-10T11:28:04.776Z,3.50
2018-04-10T11:30:33.061Z,3.33
2018-04-10T11:33:00.559Z,3.73
2018-04-10T11:35:28.074Z,3.27
2018-04-10T11:37:55.568Z,3.37
2018-04-10T11:40:23.848Z,3.00
2018-04-10T11:42:52.112Z,3.17
2018-04-10T11:45:20.384Z,3.00
2018-04-10T11:47:48.649Z,3.33
2018-04-10T11:50:16.159Z,3.77
2018-04-10T11:52:44.259Z,3.13
2018-04-10T11:55:11.753Z,3.40
2018-04-10T11:57:40.033Z,3.00
2018-04-10T12:00:08.334Z,3.40
2018-04-10T12:02:36.584Z,3.30
2018-04-10T12:05:04.841Z,3.13
2018-04-10T12:07:32.357Z,3.70
2018-04-10T12:09:59.851Z,3.07
2018-04-10T12:12:27.368Z,3.00
2018-04-10T12:14:54.860Z,3.50
2018-04-10T12:17:23.872Z,2.57
2018-04-10T12:19:51.368Z,3.00
2018-04-10T12:22:18.880Z,6.90
2018-04-10T12:24:46.381Z,8.70
2018-04-10T12:27:13.894Z,9.73
2018-04-10T12:29:41.394Z,9.40
2018-04-10T12:32:08.907Z,9.00
2018-04-10T12:34:36.409Z,8.47
2018-04-10T12:37:03.932Z,7.00
2018-04-10T12:39:31.433Z,6.60
2018-04-10T12:41:58.947Z,6.30
2018-04-10T12:44:26.444Z,6.73
2018-04-10T12:46:53.956Z,8.23
2018-04-10T12:49:21.452Z,9.00
2018-04-10T12:51:48.972Z,7.80
2018-04-10T12:54:16.471Z,7.57
2018-04-10T12:56:43.992Z,7.80
2018-04-10T12:59:11.493Z,7.03
2018-04-10T13:01:39.004Z,7.13
2018-04-10T13:04:06.505Z,6.50
2018-04-10T13:06:34.015Z,6.50
2018-04-10T13:09:01.512Z,7.20
2018-04-10T13:11:29.028Z,7.80
2018-04-10T13:13:56.540Z,12.33
2018-04-10T13:16:24.072Z,11.47
2018-04-10T13:18:52.336Z,8.87
2018-04-10T13:21:19.857Z,11.67
2018-04-10T13:23:47.360Z,12.47
2018-04-10T13:26:15.643Z,13.33
2018-04-10T13:28:43.912Z,13.63
2018-04-10T13:31:12.200Z,12.70
2018-04-10T13:33:40.469Z,12.30
2018-04-10T13:36:08.751Z,11.70
2018-04-10T13:38:37.016Z,11.03
2018-04-10T13:41:05.299Z,11.90
2018-04-10T13:43:33.568Z,11.90
2018-04-10T13:46:01.832Z,10.90
2018-04-10T13:48:29.349Z,11.63
2018-04-10T13:50:56.855Z,9.77
2018-04-10T13:53:24.368Z,10.27
2018-04-10T13:55:51.868Z,11.13
2018-04-10T13:58:19.385Z,10.13
2018-04-10T14:00:46.896Z,9.63
2018-04-10T14:03:15.175Z,8.97
2018-04-10T14:05:43.440Z,8.77
2018-04-10T14:08:10.948Z,8.47
2018-04-10T14:10:38.440Z,9.63
2018-04-10T14:13:05.952Z,9.57
2018-04-10T14:15:33.456Z,8.60
2018-04-10T14:18:00.968Z,8.17
2018-04-10T14:20:28.463Z,8.67
2018-04-10T14:22:55.976Z,7.40
2018-04-10T14:25:23.472Z,7.20
2018-04-10T14:27:50.984Z,6.60
2018-04-10T14:30:18.484Z,6.50
2018-04-10T14:32:45.992Z,6.27
2018-04-10T14:35:14.257Z,6.43
2018-04-10T14:37:42.532Z,5.33
2018-04-10T14:40:10.791Z,6.80
2018-04-10T14:42:38.304Z,6.20
2018-04-10T14:45:05.805Z,5.70
2018-04-10T14:47:33.343Z,5.20
2018-04-10T14:50:00.832Z,5.20
2018-04-10T14:52:28.337Z,5.10
2018-04-10T14:54:55.837Z,4.93
2018-04-10T14:57:23.343Z,4.97
2018-04-10T14:59:50.840Z,5.10
2018-04-10T15:02:18.721Z,3.73
2018-04-10T15:04:46.216Z,3.90
2018-04-10T15:07:13.724Z,3.50
2018-04-10T15:09:41.216Z,3.60
2018-04-10T15:12:09.496Z,3.57
2018-04-10T15:14:37.752Z,4.13
2018-04-10T15:17:05.270Z,3.83
2018-04-10T15:19:32.767Z,3.23
2018-04-10T15:22:00.280Z,3.70
2018-04-10T15:24:27.774Z,3.27
2018-04-10T15:26:55.267Z,3.07
2018-04-10T15:29:23.544Z,2.70
2018-04-10T15:31:51.804Z,3.23
2018-04-10T15:34:20.142Z,2.57
2018-04-10T15:36:48.355Z,2.87
2018-04-10T15:39:16.640Z,2.40
2018-04-10T15:41:44.899Z,2.40
2018-04-10T15:44:12.407Z,2.47
2018-04-10T15:46:39.905Z,2.73
2018-04-10T15:49:07.412Z,2.40
2018-04-10T15:51:34.909Z,2.10
2018-04-10T15:54:02.421Z,1.97
2018-04-10T15:56:29.917Z,2.00
2018-04-10T15:58:57.433Z,1.70
2018-04-10T16:01:24.929Z,1.90
2018-04-10T16:03:53.208Z,1.90
2018-04-10T16:06:20.700Z,2.27
2018-04-10T16:08:48.208Z,1.70
2018-04-10T16:11:15.704Z,1.63
2018-04-10T16:13:43.213Z,1.90
2018-04-10T16:16:10.708Z,1.73
2018-04-10T16:18:38.223Z,2.23
2018-04-10T16:21:05.716Z,1.70
2018-04-10T16:23:33.228Z,2.20
2018-04-10T16:26:01.483Z,2.23
2018-04-10T16:28:28.992Z,2.37
2018-04-10T16:30:56.488Z,2.17
2018-04-10T16:33:24.001Z,1.77
2018-04-10T16:35:51.501Z,2.07
2018-04-10T16:38:19.029Z,2.10
2018-04-10T16:40:46.524Z,2.47
2018-04-10T16:43:14.040Z,2.10
2018-04-10T16:45:41.531Z,2.47
2018-04-10T16:48:09.036Z,2.33
2018-04-10T16:50:36.528Z,2.23
2018-04-10T16:53:04.040Z,1.97
2018-04-10T16:55:31.532Z,2.97
2018-04-10T16:57:59.035Z,2.40
2018-04-10T17:00:26.532Z,2.63
2018-04-10T17:02:54.045Z,3.10
2018-04-10T17:05:21.554Z,3.00
2018-04-10T17:07:49.052Z,2.97
2018-04-10T17:10:16.564Z,2.43
2018-04-10T17:12:44.056Z,2.43
2018-04-10T17:15:11.564Z,2.20
2018-04-10T17:17:39.056Z,3.10
2018-04-10T17:20:06.576Z,2.53
2018-04-10T17:22:34.840Z,2.93
2018-04-10T17:25:03.116Z,2.40
2018-04-10T17:27:31.380Z,2.50
2018-04-10T17:29:58.893Z,3.10
2018-04-10T17:32:26.384Z,2.50
2018-04-10T17:34:53.978Z,3.30
2018-04-10T17:37:22.240Z,3.30
2018-04-10T17:39:50.516Z,2.60
2018-04-10T17:42:18.781Z,2.63
2018-04-10T17:44:46.293Z,2.93
2018-04-10T17:47:13.784Z,2.87
2018-04-10T17:49:41.355Z,2.70
2018-04-10T17:52:08.844Z,2.93
2018-04-10T17:54:36.352Z,3.10
2018-04-10T17:57:03.853Z,2.50
2018-04-10T17:59:32.132Z,2.80
2018-04-10T18:02:00.389Z,3.00
2018-04-10T18:04:28.673Z,2.50
2018-04-10T18:06:56.936Z,2.60
2018-04-10T18:09:24.448Z,2.93
2018-04-10T18:11:51.981Z,2.87
2018-04-10T18:14:20.236Z,2.90
2018-04-10T18:16:48.497Z,2.90
2018-04-10T18:19:16.008Z,3.40
2018-04-10T18:21:43.506Z,2.87
2018-04-10T18:24:11.024Z,2.50
2018-04-10T18:26:38.520Z,2.50
2018-04-10T18:29:06.036Z,3.40
2018-04-10T18:31:33.535Z,3.40
2018-04-10T18:34:01.140Z,3.20
2018-04-10T18:36:28.641Z,4.10
2018-04-10T18:38:56.239Z,4.30
2018-04-10T18:41:24.534Z,3.90
2018-04-10T18:43:52.048Z,3.60
2018-04-10T18:46:19.544Z,3.27
2018-04-10T18:48:47.823Z,3.60
2018-04-10T18:51:15.317Z,2.87
2018-04-10T18:53:42.828Z,3.13
2018-04-10T18:56:11.094Z,4.27
2018-04-10T18:58:39.374Z,4.80
2018-04-10T19:01:07.635Z,4.53
2018-04-10T19:03:35.148Z,5.53
2018-04-10T19:06:02.646Z,5.63
2018-04-10T19:08:30.907Z,5.10
2018-04-10T19:10:58.416Z,4.13
2018-04-10T19:13:25.912Z,4.10
2018-04-10T19:15:53.419Z,4.57
2018-04-10T19:18:21.676Z,3.53
2018-04-10T19:20:49.285Z,3.80
2018-04-10T19:23:16.800Z,3.60
2018-04-10T19:25:44.392Z,3.10
2018-04-10T19:28:11.893Z,3.17
2018-04-10T19:30:39.412Z,3.17
2018-04-10T19:33:06.960Z,3.03
2018-04-10T19:35:35.241Z,2.77
2018-04-10T19:38:02.736Z,3.00
2018-04-10T19:40:30.356Z,2.70
2018-04-10T19:42:57.916Z,2.83
2018-04-10T19:45:25.427Z,2.73
2018-04-10T19:47:53.050Z,2.97
2018-04-10T19:50:20.605Z,2.77
2018-04-10T19:52:49.105Z,2.53
2018-04-10T19:55:16.652Z,3.13
2018-04-10T19:57:44.163Z,3.03
2018-04-10T20:00:11.776Z,2.77
2018-04-10T20:02:39.284Z,3.17
2018-04-10T20:05:06.840Z,3.10
2018-04-10T20:07:34.368Z,2.73
2018-04-10T20:10:01.891Z,2.80
2018-04-10T20:12:29.476Z,3.00
2018-04-10T20:14:56.999Z,3.40
2018-04-10T20:17:25.368Z,3.47
2018-04-10T20:19:53.782Z,2.90
2018-04-10T20:22:21.280Z,2.80
2018-04-10T20:24:48.788Z,3.00
2018-04-10T20:27:16.292Z,2.83
2018-04-10T20:29:43.800Z,2.97
2018-04-10T20:32:11.296Z,3.30
2018-04-10T20:34:38.808Z,4.03
2018-04-10T20:37:06.301Z,4.20
2018-04-10T20:39:33.832Z,5.37
2018-04-10T20:42:01.385Z,5.20
2018-04-10T20:44:28.880Z,5.60
2018-04-10T20:46:56.388Z,6.63
2018-04-10T20:49:24.647Z,5.90
2018-04-10T20:51:52.160Z,7.70
2018-04-10T20:54:19.656Z,6.33
2018-04-10T20:56:47.169Z,6.77
2018-04-10T20:59:14.665Z,7.47
2018-04-10T21:01:42.273Z,7.77
2018-04-10T21:04:09.775Z,8.83
2018-04-10T21:06:37.296Z,9.50
2018-04-10T21:09:05.504Z,9.00
2018-04-10T21:11:33.018Z,14.00
2018-04-10T21:14:00.516Z,10.97
2018-04-10T21:16:28.036Z,8.90
2018-04-10T21:18:55.544Z,9.70
2018-04-10T21:21:23.071Z,10.33
2018-04-10T21:26:29.336Z,10.97
2018-04-10T21:28:56.892Z,11.07
2018-04-10T21:31:24.403Z,11.10
2018-04-10T21:33:51.923Z,12.33
2018-04-10T21:36:19.483Z,11.90
2018-04-10T21:38:47.024Z,12.17
2018-04-10T21:41:14.527Z,12.33
2018-04-10T21:43:42.074Z,13.27
2018-04-10T21:46:09.559Z,13.20
2018-04-10T21:48:37.143Z,14.00
2018-04-10T21:51:05.405Z,13.07
2018-04-10T21:53:32.988Z,13.60
2018-04-10T21:56:01.272Z,13.30
2018-04-10T21:58:28.832Z,14.20
2018-04-10T22:00:56.337Z,12.90
2018-04-10T22:03:23.848Z,11.87
2018-04-10T22:05:51.349Z,12.17
2018-04-10T22:08:18.859Z,11.77
2018-04-10T22:10:46.360Z,11.70
2018-04-10T22:13:13.880Z,12.43
2018-04-10T22:15:41.404Z,12.50
2018-04-10T22:18:08.996Z,13.40
2018-04-10T22:20:36.497Z,14.10
2018-04-10T22:23:04.006Z,13.03
2018-04-10T22:25:31.548Z,13.07
2018-04-10T22:27:59.844Z,14.30
2018-04-10T22:30:27.404Z,14.87
2018-04-10T22:32:54.940Z,16.37
2018-04-10T22:35:22.462Z,16.37
2018-04-10T22:37:49.969Z,16.33
2018-04-10T22:40:17.527Z,17.20
2018-04-10T22:42:45.068Z,16.50
2018-04-10T22:45:12.589Z,17.20
2018-04-10T22:47:40.084Z,17.57
2018-04-10T22:50:07.601Z,17.07
2018-04-10T22:52:35.104Z,17.47
2018-04-10T22:55:02.619Z,15.97
2018-04-10T22:57:30.116Z,16.43
2018-04-10T22:59:57.680Z,16.33
2018-04-10T23:02:25.189Z,15.80
2018-04-10T23:04:52.798Z,17.07
2018-04-10T23:07:20.357Z,16.10
2018-04-10T23:09:47.872Z,15.60
2018-04-10T23:12:15.368Z,14.80
2018-04-10T23:14:43.656Z,14.83
2018-04-10T23:17:11.936Z,13.93
2018-04-10T23:19:40.204Z,14.90
2018-04-10T23:22:08.488Z,13.80
2018-04-10T23:24:36.757Z,13.47
2018-04-10T23:27:05.041Z,14.10
2018-04-10T23:29:33.309Z,12.90
2018-04-10T23:32:01.589Z,13.80
2018-04-10T23:34:29.852Z,12.90
2018-04-10T23:36:57.377Z,15.20
2018-04-10T23:39:24.881Z,13.50
2018-04-10T23:41:52.392Z,11.73
2018-04-10T23:44:19.904Z,13.23
2018-04-10T23:46:48.184Z,12.37
2018-04-10T23:49:16.450Z,12.73
2018-04-10T23:51:44.041Z,13.77
2018-04-10T23:54:11.532Z,13.80
2018-04-10T23:56:39.057Z,14.83
2018-04-10T23:59:06.608Z,13.23
